Time;durP1;ratioP1;P1;durP2;ratioP2;P2;SDS_P1;SDS_P2;PMS_P1;PMS_P2;Temp;Humidity;BMP_temperature;BMP_pressure;BME280_temperature;BME280_humidity;BME280_pressure;Samples;Min_cycle;Max_cycle;Signal;HPM_P1;HPM_P2
2022/09/12 00:01:24;;;;;;;11.25;9.90;;;;;;;13.42;100.00;96414.69;1744980;80;21323;-83
2022/09/12 00:03:54;;;;;;;11.85;10.60;;;;;;;13.40;100.00;96409.67;1762662;79;20894;-84
2022/09/12 00:06:24;;;;;;;11.80;10.00;;;;;;;13.41;100.00;96414.39;1750351;80;21288;-85
2022/09/12 00:08:52;;;;;;;11.85;10.55;;;;;;;13.34;100.00;96418.77;1771467;79;21016;-84
2022/09/12 00:11:18;;;;;;;11.68;10.45;;;;;;;13.32;100.00;96416.86;1762632;79;20918;-85
2022/09/12 00:13:44;;;;;;;11.68;10.48;;;;;;;13.29;100.00;96414.16;1804993;79;21263;-84
2022/09/12 00:16:18;;;;;;;11.75;10.55;;;;;;;13.29;100.00;96406.33;1781264;80;21026;-84
2022/09/12 00:18:45;;;;;;;12.20;10.88;;;;;;;13.30;100.00;96411.05;1773289;81;20969;-84
2022/09/12 00:21:11;;;;;;;11.60;9.15;;;;;;;13.29;100.00;96421.98;1784674;80;20957;-84
2022/09/12 00:23:37;;;;;;;11.10;10.10;;;;;;;13.28;100.00;96417.77;1773961;80;20922;-84
2022/09/12 00:26:05;;;;;;;11.30;9.78;;;;;;;13.25;100.00;96422.08;1769575;80;21321;-84
2022/09/12 00:28:32;;;;;;;10.98;9.78;;;;;;;13.21;100.00;96420.38;1761561;80;21018;-84
2022/09/12 00:30:58;;;;;;;10.28;8.78;;;;;;;13.20;100.00;96421.88;1753243;81;20985;-84
2022/09/12 00:33:24;;;;;;;9.35;8.38;;;;;;;13.20;100.00;96420.07;1772143;80;20911;-84
2022/09/12 00:35:51;;;;;;;12.95;10.55;;;;;;;13.21;100.00;96416.96;1758508;80;21024;-84
2022/09/12 00:38:17;;;;;;;18.45;13.50;;;;;;;13.21;100.00;96419.57;1786224;80;20922;-85
2022/09/12 00:40:43;;;;;;;11.93;10.32;;;;;;;13.20;100.00;96423.98;1750428;80;20956;-84
2022/09/12 00:43:32;;;;;;;12.40;9.98;;;;;;;13.20;100.00;96417.46;1753082;80;20984;-84
2022/09/12 00:46:21;;;;;;;10.30;9.15;;;;;;;13.20;100.00;96425.80;1791141;80;20989;-84
2022/09/12 00:48:53;;;;;;;9.78;8.78;;;;;;;13.17;100.00;96428.73;1756250;80;21336;-84
2022/09/12 00:51:18;;;;;;;12.07;8.45;;;;;;;13.14;100.00;96426.02;1773673;80;21300;-84
2022/09/12 00:53:44;;;;;;;9.60;8.00;;;;;;;13.12;100.00;96424.12;1792385;79;21303;-85
2022/09/12 00:56:11;;;;;;;12.50;9.15;;;;;;;13.12;100.00;96422.01;1772942;80;20942;-85
2022/09/12 00:58:48;;;;;;;12.37;8.90;;;;;;;13.10;100.00;96418.80;1750972;81;21057;-84
2022/09/12 01:01:13;;;;;;;9.55;7.72;;;;;;;13.10;100.00;96419.59;1762439;80;20966;-84
2022/09/12 01:03:39;;;;;;;8.13;7.08;;;;;;;13.09;100.00;96421.91;1772178;80;20958;-84
2022/09/12 01:06:10;;;;;;;8.88;8.00;;;;;;;13.09;100.00;96417.19;1753131;81;20970;-84
2022/09/12 01:08:36;;;;;;;8.97;7.47;;;;;;;13.08;100.00;96418.19;1779268;80;20941;-84
2022/09/12 01:11:04;;;;;;;7.55;6.78;;;;;;;13.06;100.00;96414.48;1791245;80;21366;-84
2022/09/12 01:13:31;;;;;;;10.00;7.37;;;;;;;13.04;100.00;96416.48;1791610;80;21425;-84
2022/09/12 01:15:56;;;;;;;8.60;7.70;;;;;;;13.04;100.00;96417.78;1766599;80;20994;-84
2022/09/12 01:18:46;;;;;;;7.70;6.90;;;;;;;13.05;100.00;96415.98;1767911;80;21449;-84
2022/09/12 01:21:34;;;;;;;10.68;8.15;;;;;;;13.04;100.00;96419.09;1750524;80;21324;-84
2022/09/12 01:24:08;;;;;;;7.80;6.55;;;;;;;13.04;100.00;96420.39;1746159;80;20969;-84
2022/09/12 01:26:59;;;;;;;8.58;7.47;;;;;;;13.03;100.00;96420.09;1773356;80;21058;-87
2022/09/12 01:29:36;;;;;;;8.18;7.03;;;;;;;13.02;100.00;96411.97;1778944;80;21020;-87
2022/09/12 01:32:34;;;;;;;9.55;6.58;;;;;;;13.02;100.00;96408.55;1742189;81;21397;-87
2022/09/12 01:35:35;;;;;;;8.25;6.97;;;;;;;13.02;100.00;96405.95;1746703;80;20979;-87
2022/09/12 01:38:20;;;;;;;8.60;7.17;;;;;;;13.03;100.00;96405.75;1744579;81;21055;-87
2022/09/12 01:40:54;;;;;;;8.78;6.83;;;;;;;13.01;100.00;96402.50;1744598;80;21010;-87
2022/09/12 01:43:31;;;;;;;8.80;7.78;;;;;;;13.00;100.00;96407.92;1773833;80;20987;-87
2022/09/12 01:46:14;;;;;;;9.30;7.03;;;;;;;13.00;100.00;96407.42;1769134;80;21011;-87
2022/09/12 01:49:01;;;;;;;7.35;6.58;;;;;;;13.00;100.00;96405.31;1749639;80;21009;-87
2022/09/12 01:51:48;;;;;;;8.08;7.28;;;;;;;13.01;100.00;96405.61;1768633;80;21385;-87
2022/09/12 01:54:28;;;;;;;8.25;7.42;;;;;;;13.00;100.00;96409.22;1757798;80;21358;-87
2022/09/12 01:56:55;;;;;;;12.98;8.93;;;;;;;12.95;100.00;96415.03;1766062;80;21425;-87
2022/09/12 01:59:29;;;;;;;12.85;9.70;;;;;;;12.91;100.00;96413.82;1744684;80;21015;-87
2022/09/12 02:02:09;;;;;;;9.05;8.15;;;;;;;12.89;100.00;96419.23;1765842;80;20970;-86
2022/09/12 02:05:00;;;;;;;11.57;9.68;;;;;;;12.86;100.00;96419.63;1746090;80;21018;-85
2022/09/12 02:07:37;;;;;;;13.20;10.80;;;;;;;12.85;100.00;96419.80;1751686;80;20955;-83
2022/09/12 02:10:13;;;;;;;12.00;10.08;;;;;;;12.80;100.00;96427.41;1759779;80;20987;-85
2022/09/12 02:12:45;;;;;;;12.35;10.32;;;;;;;12.77;100.00;96420.78;1753326;80;20994;-85
2022/09/12 02:15:10;;;;;;;15.13;10.72;;;;;;;12.79;100.00;96420.09;1755171;79;21025;-85
2022/09/12 02:17:40;;;;;;;10.98;9.73;;;;;;;12.76;100.00;96415.27;1730472;81;21002;-85
2022/09/12 02:20:31;;;;;;;12.37;10.50;;;;;;;12.75;100.00;96413.66;1754448;80;21377;-84
2022/09/12 02:22:57;;;;;;;13.62;10.70;;;;;;;12.76;100.00;96420.98;1767225;80;21352;-85
2022/09/12 02:25:23;;;;;;;12.65;11.20;;;;;;;12.75;100.00;96419.37;1778046;80;20963;-86
2022/09/12 02:28:06;;;;;;;12.05;10.70;;;;;;;12.74;100.00;96413.36;1774876;80;21426;-85
2022/09/12 02:30:40;;;;;;;12.37;11.18;;;;;;;12.75;100.00;96411.05;1769147;79;20983;-85
2022/09/12 02:33:21;;;;;;;15.08;11.68;;;;;;;12.74;100.00;96414.66;1760266;81;20967;-85
2022/09/12 02:36:00;;;;;;;16.87;12.40;;;;;;;12.72;100.00;96417.96;1720654;82;21064;-84
2022/09/12 02:38:34;;;;;;;13.62;11.38;;;;;;;12.68;100.00;96415.41;1772093;80;20990;-84
2022/09/12 02:41:00;;;;;;;14.55;11.73;;;;;;;12.63;100.00;96417.31;1738212;81;21302;-85
2022/09/12 02:43:25;;;;;;;15.95;11.88;;;;;;;12.65;100.00;96413.70;1767059;80;20967;-84
2022/09/12 02:45:52;;;;;;;14.85;11.60;;;;;;;12.67;100.00;96409.09;1756021;80;21045;-85
2022/09/12 02:48:25;;;;;;;15.15;13.50;;;;;;;12.68;100.00;96411.50;1756877;81;21013;-85
2022/09/12 02:50:51;;;;;;;14.53;13.10;;;;;;;12.66;100.00;96410.90;1734254;81;21026;-85
2022/09/12 02:53:16;;;;;;;18.70;13.35;;;;;;;12.67;100.00;96414.31;1748672;80;21286;-84
2022/09/12 02:55:42;;;;;;;15.63;13.65;;;;;;;12.69;100.00;96418.83;1768009;80;20981;-85
2022/09/12 02:58:12;;;;;;;16.87;13.03;;;;;;;12.70;100.00;96413.95;1770895;80;20904;-85
2022/09/12 03:01:03;;;;;;;16.57;13.38;;;;;;;12.69;100.00;96413.14;1750987;81;20997;-85
2022/09/12 03:03:55;;;;;;;15.63;13.58;;;;;;;12.69;100.00;96416.22;1767914;80;21057;-86
2022/09/12 03:06:41;;;;;;;16.62;13.22;;;;;;;12.69;100.00;96419.66;1751240;80;20995;-85
2022/09/12 03:09:22;;;;;;;18.35;15.20;;;;;;;12.68;100.00;96423.73;1768900;80;21423;-84
2022/09/12 03:12:35;;;;;;;19.13;15.10;;;;;;;12.64;100.00;96423.33;1768414;80;20927;-85
2022/09/12 03:15:22;;;;;;;16.67;14.38;;;;;;;12.62;100.00;96424.83;1761925;80;21054;-85
2022/09/12 03:18:02;;;;;;;15.35;13.08;;;;;;;12.58;100.00;96419.70;1780049;79;21437;-84
2022/09/12 03:21:04;;;;;;;17.67;14.23;;;;;;;12.54;100.00;96418.48;1757110;80;20937;-85
2022/09/12 03:23:43;;;;;;;15.70;12.93;;;;;;;12.53;100.00;96421.28;1767927;79;21299;-84
2022/09/12 03:26:27;;;;;;;16.60;13.88;;;;;;;12.53;100.00;96426.00;1771962;79;21064;-85
2022/09/12 03:28:53;;;;;;;15.88;13.75;;;;;;;12.52;100.00;96425.66;1744854;80;21328;-85
2022/09/12 03:31:19;;;;;;;15.80;13.43;;;;;;;12.48;100.00;96426.25;1762873;79;20956;-85
2022/09/12 03:33:44;;;;;;;14.25;12.15;;;;;;;12.47;100.00;96433.77;1745015;81;20965;-84
2022/09/12 03:36:20;;;;;;;13.20;11.80;;;;;;;12.46;100.00;96426.44;1766344;81;20930;-84
2022/09/12 03:38:46;;;;;;;13.53;10.88;;;;;;;12.45;100.00;96431.84;1786168;79;20960;-85
2022/09/12 03:41:12;;;;;;;13.55;11.57;;;;;;;12.44;100.00;96427.14;1745098;80;20932;-85
2022/09/12 03:43:38;;;;;;;13.58;12.05;;;;;;;12.44;100.00;96430.24;1751208;80;21347;-85
2022/09/12 03:46:03;;;;;;;14.03;11.55;;;;;;;12.45;100.00;96429.24;1779998;79;20932;-85
2022/09/12 03:48:30;;;;;;;14.58;11.93;;;;;;;12.46;100.00;96421.73;1767157;79;20937;-85
2022/09/12 03:51:02;;;;;;;15.18;12.07;;;;;;;12.45;100.00;96427.44;1748285;79;20995;-84
2022/09/12 03:53:29;;;;;;;12.47;10.95;;;;;;;12.44;100.00;96425.83;1754579;79;21009;-85
2022/09/12 03:55:55;;;;;;;12.15;10.85;;;;;;;12.45;100.00;96423.53;1791648;79;20951;-84
2022/09/12 03:58:21;;;;;;;14.23;10.93;;;;;;;12.46;100.00;96426.44;1783537;79;20936;-85
2022/09/12 04:00:47;;;;;;;13.32;11.88;;;;;;;12.47;100.00;96427.25;1799440;79;21307;-84
2022/09/12 04:03:12;;;;;;;13.15;11.25;;;;;;;12.48;100.00;96431.46;1793998;79;20987;-84
2022/09/12 04:05:38;;;;;;;13.15;11.18;;;;;;;12.46;100.00;96430.85;1771154;79;21004;-85
2022/09/12 04:08:04;;;;;;;14.05;10.53;;;;;;;12.42;100.00;96431.73;1787127;79;21447;-85
2022/09/12 04:10:30;;;;;;;13.72;11.20;;;;;;;12.43;100.00;96429.94;1745085;80;21008;-85
2022/09/12 04:12:57;;;;;;;12.53;10.40;;;;;;;12.43;100.00;96424.23;1747763;79;21792;-84
2022/09/12 04:15:23;;;;;;;12.85;11.45;;;;;;;12.45;100.00;96429.24;1765427;80;21068;-85
2022/09/12 04:17:49;;;;;;;13.60;11.35;;;;;;;12.46;100.00;96435.56;1758103;79;21018;-85
2022/09/12 04:20:16;;;;;;;14.03;11.50;;;;;;;12.45;100.00;96437.86;1750381;80;20894;-84
2022/09/12 04:22:41;;;;;;;15.43;13.68;;;;;;;12.46;100.00;96435.56;1744929;79;21008;-84
2022/09/12 04:25:08;;;;;;;18.75;13.98;;;;;;;12.43;100.00;96437.75;1742223;80;20992;-85
2022/09/12 04:27:35;;;;;;;16.45;13.68;;;;;;;12.40;100.00;96444.66;1751096;79;20984;-85
2022/09/12 04:30:01;;;;;;;18.70;14.63;;;;;;;12.37;100.00;96440.64;1789784;80;21009;-85
2022/09/12 04:32:29;;;;;;;20.08;14.75;;;;;;;12.36;100.00;96442.10;1772363;80;20970;-84
2022/09/12 04:34:56;;;;;;;18.27;14.47;;;;;;;12.36;100.00;96440.80;1799956;79;20936;-84
2022/09/12 04:37:23;;;;;;;18.55;14.73;;;;;;;12.38;100.00;96442.75;1793334;79;20937;-85
2022/09/12 04:39:49;;;;;;;21.80;15.03;;;;;;;12.40;100.00;96440.25;1748703;80;21001;-85
2022/09/12 04:42:15;;;;;;;20.57;16.48;;;;;;;12.41;100.00;96441.05;1767479;79;21320;-85
2022/09/12 04:44:41;;;;;;;22.82;15.28;;;;;;;12.42;100.00;96441.36;1761379;81;20941;-85
2022/09/12 04:47:06;;;;;;;18.67;14.83;;;;;;;12.42;100.00;96436.95;1741877;80;21055;-85
2022/09/12 04:49:32;;;;;;;17.42;14.23;;;;;;;12.43;100.00;96440.36;1746828;79;20980;-85
2022/09/12 04:51:58;;;;;;;17.42;14.18;;;;;;;12.42;100.00;96443.47;1768690;79;21008;-85
2022/09/12 04:54:24;;;;;;;16.17;13.58;;;;;;;12.40;100.00;96445.46;1795102;80;21335;-85
2022/09/12 04:56:50;;;;;;;17.75;14.05;;;;;;;12.42;100.00;96445.27;1741988;81;20992;-84
2022/09/12 04:59:17;;;;;;;19.07;14.68;;;;;;;12.39;100.00;96446.95;1746501;79;21343;-85
2022/09/12 05:01:42;;;;;;;17.40;15.18;;;;;;;12.39;100.00;96452.17;1753402;80;20917;-84
2022/09/12 05:04:09;;;;;;;19.25;16.10;;;;;;;12.38;100.00;96457.08;1772082;79;20993;-84
2022/09/12 05:06:36;;;;;;;17.67;15.00;;;;;;;12.37;100.00;96458.88;1782702;79;21365;-85
2022/09/12 05:09:03;;;;;;;16.35;13.93;;;;;;;12.38;100.00;96463.09;1807363;79;20948;-84
2022/09/12 05:11:32;;;;;;;18.27;15.65;;;;;;;12.37;100.00;96461.98;1783718;79;21025;-85
2022/09/12 05:13:58;;;;;;;18.30;14.63;;;;;;;12.31;100.00;96463.03;1794316;79;20920;-84
2022/09/12 05:16:25;;;;;;;18.37;14.83;;;;;;;12.31;100.00;96467.44;1797389;79;21402;-85
2022/09/12 05:18:51;;;;;;;17.25;14.58;;;;;;;12.30;100.00;96466.63;1750510;80;20994;-84
2022/09/12 05:21:20;;;;;;;18.77;15.35;;;;;;;12.30;100.00;96461.42;1734413;80;21009;-85
2022/09/12 05:23:49;;;;;;;17.25;13.85;;;;;;;12.32;100.00;96462.53;1784340;80;21393;-85
2022/09/12 05:26:16;;;;;;;18.60;15.65;;;;;;;12.33;100.00;96469.34;1796318;79;20979;-84
2022/09/12 05:28:41;;;;;;;18.98;15.68;;;;;;;12.36;100.00;96474.67;1780589;79;20998;-85
2022/09/12 05:31:12;;;;;;;17.92;15.00;;;;;;;12.34;100.00;96472.27;1732415;81;21010;-85
2022/09/12 05:33:41;;;;;;;17.10;14.68;;;;;;;12.34;100.00;96480.08;1791538;80;20959;-84
2022/09/12 05:36:10;;;;;;;16.95;13.18;;;;;;;12.35;100.00;96484.79;1798561;79;20953;-85
2022/09/12 05:38:36;;;;;;;16.65;12.93;;;;;;;12.32;100.00;96488.59;1742222;80;21002;-85
2022/09/12 05:41:12;;;;;;;17.45;14.40;;;;;;;12.30;100.00;96490.08;1774468;80;20932;-85
2022/09/12 05:43:40;;;;;;;17.98;14.90;;;;;;;12.21;100.00;96480.01;1770881;79;20947;-85
2022/09/12 05:46:11;;;;;;;16.52;14.53;;;;;;;12.27;100.00;96493.06;1810653;79;21003;-85
2022/09/12 05:48:38;;;;;;;18.57;13.48;;;;;;;12.29;100.00;96495.48;1778959;80;22045;-85
2022/09/12 05:51:07;;;;;;;15.38;13.22;;;;;;;12.29;100.00;96496.78;1755554;80;21048;-85
2022/09/12 05:53:34;;;;;;;14.90;12.47;;;;;;;12.28;100.00;96489.47;1754408;80;21395;-85
2022/09/12 05:56:17;;;;;;;15.72;12.73;;;;;;;12.23;100.00;96493.15;1772472;80;20971;-85
2022/09/12 05:58:45;;;;;;;13.75;11.00;;;;;;;12.23;100.00;96487.13;1776205;80;20955;-85
2022/09/12 06:01:16;;;;;;;14.60;10.58;;;;;;;12.24;100.00;96498.66;1766945;79;20940;-84
2022/09/12 06:03:48;;;;;;;16.20;12.68;;;;;;;12.18;100.00;96495.49;1760945;80;21002;-85
2022/09/12 06:06:15;;;;;;;13.85;12.05;;;;;;;12.16;100.00;96496.68;1761864;80;21342;-85
2022/09/12 06:08:43;;;;;;;15.00;10.88;;;;;;;12.17;100.00;96495.19;1785897;79;21041;-85
2022/09/12 06:11:12;;;;;;;12.00;10.72;;;;;;;12.20;100.00;96496.14;1760781;80;21022;-85
2022/09/12 06:13:41;;;;;;;12.20;10.30;;;;;;;12.24;100.00;96497.86;1781651;79;20991;-84
2022/09/12 06:16:14;;;;;;;12.00;9.23;;;;;;;12.25;100.00;96496.86;1812702;79;21082;-84
2022/09/12 06:18:40;;;;;;;9.95;8.45;;;;;;;12.30;100.00;96499.70;1753661;81;21005;-85
2022/09/12 06:21:09;;;;;;;11.93;8.40;;;;;;;12.31;100.00;96506.02;1733691;80;21057;-85
2022/09/12 06:23:35;;;;;;;7.95;6.85;;;;;;;12.34;100.00;96504.83;1755154;80;21029;-85
2022/09/12 06:26:03;;;;;;;8.70;7.65;;;;;;;12.32;100.00;96506.83;1761081;80;20968;-84
2022/09/12 06:28:29;;;;;;;10.38;7.85;;;;;;;12.30;100.00;96501.80;1763021;80;20985;-84
2022/09/12 06:31:09;;;;;;;11.40;8.53;;;;;;;12.29;100.00;96505.91;1763941;80;21418;-84
2022/09/12 06:33:38;;;;;;;10.43;7.33;;;;;;;12.30;100.00;96507.52;1790869;79;21356;-85
2022/09/12 06:36:06;;;;;;;8.08;6.87;;;;;;;12.30;100.00;96511.42;1772008;80;21310;-84
2022/09/12 06:38:32;;;;;;;8.60;7.17;;;;;;;12.31;100.00;96511.23;1788322;79;21044;-85
2022/09/12 06:40:59;;;;;;;9.55;7.50;;;;;;;12.35;100.00;96515.56;1792392;80;20990;-85
2022/09/12 06:43:27;;;;;;;8.08;7.28;;;;;;;12.36;100.00;96518.97;1786554;80;20950;-85
2022/09/12 06:45:53;;;;;;;10.20;7.87;;;;;;;12.36;100.00;96518.97;1792650;80;21100;-85
2022/09/12 06:48:19;;;;;;;9.18;8.00;;;;;;;12.38;100.00;96520.42;1766478;80;21345;-85
2022/09/12 06:50:58;;;;;;;7.80;7.00;;;;;;;12.41;100.00;96520.03;1729546;80;21025;-85
2022/09/12 06:53:25;;;;;;;10.18;8.53;;;;;;;12.47;100.00;96519.77;1767468;80;21316;-84
2022/09/12 06:55:57;;;;;;;9.93;8.93;;;;;;;12.44;99.47;96524.86;1755845;80;20975;-85
2022/09/12 06:58:24;;;;;;;10.25;9.23;;;;;;;12.49;100.00;96530.30;1762593;81;20954;-85
2022/09/12 07:00:51;;;;;;;10.28;9.28;;;;;;;12.55;100.00;96529.56;1750587;80;21029;-85
2022/09/12 07:03:17;;;;;;;12.43;10.90;;;;;;;12.61;100.00;96530.09;1734043;81;20898;-85
2022/09/12 07:05:45;;;;;;;9.23;8.00;;;;;;;12.64;99.72;96528.91;1764193;79;20927;-84
2022/09/12 07:08:11;;;;;;;14.45;9.55;;;;;;;12.71;98.93;96530.27;1780665;80;21375;-85
2022/09/12 07:10:37;;;;;;;9.98;8.83;;;;;;;12.76;100.00;96526.58;1768155;79;20979;-85
2022/09/12 07:13:02;;;;;;;9.98;8.98;;;;;;;12.79;99.21;96527.48;1770513;79;20929;-85
2022/09/12 07:15:28;;;;;;;8.73;7.83;;;;;;;12.71;97.61;96536.78;1770569;79;21640;-85
2022/09/12 07:17:54;;;;;;;8.78;6.80;;;;;;;12.69;98.71;96543.96;1760682;79;21085;-85
2022/09/12 07:20:20;;;;;;;8.10;7.10;;;;;;;12.69;98.24;96538.75;1762796;79;20931;-85
2022/09/12 07:22:46;;;;;;;8.15;6.47;;;;;;;12.68;97.93;96541.85;1761891;80;21028;-85
2022/09/12 07:25:11;;;;;;;9.13;7.30;;;;;;;12.76;98.92;96543.52;1780484;79;20904;-85
2022/09/12 07:27:37;;;;;;;12.78;8.90;;;;;;;12.81;99.57;96540.64;1784136;79;20974;-85
2022/09/12 07:30:06;;;;;;;10.78;9.15;;;;;;;12.77;96.44;96547.73;1791421;80;20990;-84
2022/09/12 07:32:32;;;;;;;11.38;8.33;;;;;;;12.72;97.01;96546.22;1720426;82;20945;-85
2022/09/12 07:34:58;;;;;;;9.88;8.20;;;;;;;12.74;96.87;96545.52;1775701;80;20917;-85
2022/09/12 07:37:24;;;;;;;6.17;5.15;;;;;;;12.77;97.34;96547.73;1757151;80;20944;-84
2022/09/12 07:39:50;;;;;;;8.68;7.15;;;;;;;12.79;95.58;96551.77;1780825;80;20966;-85
2022/09/12 07:42:16;;;;;;;7.65;6.17;;;;;;;12.87;97.30;96550.82;1750528;81;20926;-84
2022/09/12 07:44:43;;;;;;;7.55;5.53;;;;;;;12.92;96.22;96554.95;1755714;80;20955;-85
2022/09/12 07:47:09;;;;;;;6.55;5.95;;;;;;;12.89;95.54;96559.25;1739263;80;20987;-84
2022/09/12 07:49:35;;;;;;;7.25;5.60;;;;;;;12.91;95.39;96559.87;1767922;80;20971;-85
2022/09/12 07:52:01;;;;;;;7.55;6.53;;;;;;;12.91;94.43;96564.58;1778062;79;20936;-85
2022/09/12 07:54:27;;;;;;;6.30;5.30;;;;;;;12.92;95.13;96564.08;1824224;79;20931;-84
2022/09/12 07:56:53;;;;;;;6.95;5.20;;;;;;;13.05;96.53;96568.08;1797180;78;21043;-85
2022/09/12 07:59:20;;;;;;;6.72;5.33;;;;;;;13.11;94.40;96555.56;1758881;80;21300;-85
2022/09/12 08:01:46;;;;;;;6.78;5.42;;;;;;;13.14;94.94;96564.80;1745468;80;21325;-85
2022/09/12 08:04:11;;;;;;;7.17;5.03;;;;;;;13.13;94.12;96563.99;1733537;81;20973;-85
2022/09/12 08:06:37;;;;;;;5.87;5.12;;;;;;;13.16;94.22;96566.21;1735825;80;20972;-85
2022/09/12 08:09:04;;;;;;;5.47;4.97;;;;;;;13.20;94.94;96571.41;1791268;80;21034;-84
2022/09/12 08:11:30;;;;;;;5.05;4.28;;;;;;;13.23;94.16;96564.19;1769128;79;20949;-85
2022/09/12 08:13:56;;;;;;;16.48;9.78;;;;;;;13.26;93.50;96568.51;1716370;81;21336;-85
2022/09/12 08:16:27;;;;;;;9.75;7.65;;;;;;;13.33;94.59;96568.03;1767524;79;21456;-85
2022/09/12 08:18:53;;;;;;;11.73;8.20;;;;;;;13.39;94.67;96571.69;1775546;80;21022;-85
2022/09/12 08:21:27;;;;;;;9.23;5.53;;;;;;;13.42;93.87;96573.40;1775730;80;21015;-85
2022/09/12 08:24:01;;;;;;;6.67;5.45;;;;;;;13.41;91.91;96574.91;1792301;80;21322;-85
2022/09/12 08:26:27;;;;;;;7.40;4.60;;;;;;;13.45;90.99;96570.89;1783000;80;20986;-84
2022/09/12 08:28:53;;;;;;;6.47;4.67;;;;;;;13.53;92.24;96573.86;1783322;80;21297;-85
2022/09/12 08:31:21;;;;;;;5.67;5.08;;;;;;;13.58;93.16;96571.45;1741844;80;20988;-85
2022/09/12 08:33:46;;;;;;;5.17;4.20;;;;;;;13.56;90.94;96573.46;1747080;82;20965;-85
2022/09/12 08:36:19;;;;;;;6.00;4.05;;;;;;;13.55;91.84;96570.55;1725107;81;21153;-84
2022/09/12 08:38:47;;;;;;;5.65;3.33;;;;;;;13.57;92.22;96573.77;1743433;82;20986;-85
2022/09/12 08:41:36;;;;;;;6.87;3.37;;;;;;;13.57;90.41;96573.26;1744419;81;21018;-85
2022/09/12 08:44:23;;;;;;;4.90;3.62;;;;;;;13.61;90.84;96568.45;1744279;82;21029;-84
2022/09/12 08:47:14;;;;;;;4.62;3.47;;;;;;;13.69;92.71;96566.98;1744514;82;21034;-85
2022/09/12 08:50:04;;;;;;;5.42;3.60;;;;;;;13.67;90.76;96571.09;1726838;82;20926;-85
2022/09/12 08:52:51;;;;;;;4.55;3.47;;;;;;;13.66;90.46;96577.29;1744501;81;21018;-85
2022/09/12 08:55:34;;;;;;;4.80;4.12;;;;;;;13.66;89.25;96575.18;1725959;82;21125;-85
2022/09/12 08:58:19;;;;;;;5.70;3.83;;;;;;;13.70;91.55;96576.42;1724942;82;20986;-85
2022/09/12 09:01:19;;;;;;;5.92;4.25;;;;;;;13.74;88.35;96572.41;1744334;82;21001;-84
2022/09/12 09:03:57;;;;;;;4.28;3.67;;;;;;;13.79;88.22;96571.31;1730111;81;21016;-85
2022/09/12 09:06:37;;;;;;;3.60;3.10;;;;;;;13.86;87.68;96568.73;1717824;81;21013;-85
2022/09/12 09:09:38;;;;;;;5.10;3.60;;;;;;;13.88;86.76;96568.03;1781038;80;20927;-85
2022/09/12 09:12:13;;;;;;;4.47;3.15;;;;;;;13.87;86.33;96569.84;1757405;80;21346;-84
2022/09/12 09:14:47;;;;;;;5.15;3.35;;;;;;;13.79;86.62;96574.73;1788464;80;20956;-85
2022/09/12 09:17:21;;;;;;;5.40;3.40;;;;;;;13.74;85.99;96570.60;1777714;80;21104;-84
2022/09/12 09:19:52;;;;;;;3.75;3.25;;;;;;;13.67;85.82;96572.41;1790136;80;20959;-84
2022/09/12 09:22:38;;;;;;;5.60;3.17;;;;;;;13.67;86.12;96572.41;1776999;80;21023;-85
2022/09/12 09:25:20;;;;;;;4.80;2.95;;;;;;;13.70;86.80;96568.59;1753114;80;21042;-84
2022/09/12 09:28:03;;;;;;;6.67;3.33;;;;;;;13.76;85.47;96571.71;1762792;80;20991;-85
2022/09/12 09:30:29;;;;;;;6.78;2.90;;;;;;;13.76;86.01;96573.81;1800453;79;21026;-85
2022/09/12 09:32:57;;;;;;;6.12;3.10;;;;;;;13.79;85.33;96570.00;1782632;79;20957;-85
2022/09/12 09:35:47;;;;;;;3.95;3.15;;;;;;;13.82;85.80;96567.80;1753168;81;21405;-85
2022/09/12 09:38:49;;;;;;;5.20;3.20;;;;;;;13.90;86.97;96568.63;1779891;79;21364;-85
2022/09/12 09:41:37;;;;;;;5.92;4.03;;;;;;;13.89;85.10;96569.64;1737074;80;21024;-85
2022/09/12 09:44:03;;;;;;;5.67;3.77;;;;;;;13.84;86.39;96566.83;1736657;81;20941;-85
2022/09/12 09:46:29;;;;;;;4.00;3.05;;;;;;;13.87;85.81;96572.45;1780573;79;20949;-84
2022/09/12 09:48:54;;;;;;;7.30;3.77;;;;;;;13.90;86.13;96582.50;1781436;80;20896;-85
2022/09/12 09:51:32;;;;;;;4.65;2.67;;;;;;;13.95;86.57;96578.78;1763596;79;20947;-85
2022/09/12 09:54:02;;;;;;;3.65;2.87;;;;;;;14.11;85.80;96576.30;1774416;79;21342;-84
2022/09/12 09:56:38;;;;;;;4.60;3.20;;;;;;;14.15;83.47;96576.20;1774623;79;21334;-85
2022/09/12 09:59:16;;;;;;;6.53;2.20;;;;;;;14.26;84.26;96572.20;1774931;80;21300;-84
2022/09/12 10:01:51;;;;;;;4.05;2.50;;;;;;;14.47;84.00;96567.31;1793001;79;21086;-85
2022/09/12 10:04:32;;;;;;;3.33;2.80;;;;;;;14.52;84.76;96567.53;1792761;80;21344;-85
2022/09/12 10:07:01;;;;;;;2.77;2.30;;;;;;;14.65;84.36;96568.33;1739248;80;21090;-85
2022/09/12 10:09:34;;;;;;;3.47;2.12;;;;;;;14.70;84.81;96571.64;1763486;80;20978;-84
2022/09/12 10:12:19;;;;;;;4.78;2.20;;;;;;;14.65;81.43;96568.84;1783754;79;21369;-84
2022/09/12 10:14:57;;;;;;;3.50;2.12;;;;;;;14.54;82.14;96570.74;1721787;82;20956;-84
2022/09/12 10:17:40;;;;;;;5.80;2.25;;;;;;;14.48;82.20;96577.59;1744557;80;21598;-85
2022/09/12 10:20:31;;;;;;;2.65;1.92;;;;;;;14.57;81.56;96572.45;1766603;81;20985;-85
2022/09/12 10:22:58;;;;;;;2.70;2.20;;;;;;;14.80;82.54;96560.75;1733721;80;20973;-85
2022/09/12 10:25:24;;;;;;;4.12;2.30;;;;;;;14.84;80.59;96564.08;1750965;80;21384;-85
2022/09/12 10:27:56;;;;;;;2.55;2.20;;;;;;;14.76;78.63;96568.70;1768397;80;20938;-85
2022/09/12 10:30:24;;;;;;;3.52;2.22;;;;;;;14.68;79.05;96577.58;1759108;80;21012;-84
2022/09/12 10:32:52;;;;;;;4.08;2.27;;;;;;;14.56;78.88;96576.57;1757764;80;21255;-85
2022/09/12 10:35:30;;;;;;;3.77;2.60;;;;;;;14.48;78.73;96577.59;1756830;80;21030;-85
2022/09/12 10:38:04;;;;;;;2.05;1.67;;;;;;;14.60;79.06;96579.08;1705361;81;21353;-85
2022/09/12 10:40:42;;;;;;;3.67;2.12;;;;;;;14.75;78.50;96579.67;1781779;80;20980;-84
2022/09/12 10:43:19;;;;;;;3.70;2.17;;;;;;;14.83;78.14;96570.83;1767235;80;21329;-85
2022/09/12 10:45:45;;;;;;;2.33;1.52;;;;;;;15.00;80.21;96572.00;1795017;79;20963;-85
2022/09/12 10:48:30;;;;;;;4.58;1.80;;;;;;;15.11;78.54;96570.05;1777300;80;21034;-85
2022/09/12 10:50:58;;;;;;;2.25;1.95;;;;;;;15.26;80.25;96567.19;1761961;81;20982;-85
2022/09/12 10:53:28;;;;;;;3.37;1.72;;;;;;;15.27;78.62;96572.72;1774174;80;21301;-85
2022/09/12 10:56:21;;;;;;;2.52;1.75;;;;;;;15.21;78.42;96577.48;1731802;80;21027;-84
2022/09/12 10:59:18;;;;;;;4.53;1.90;;;;;;;15.07;77.43;96584.56;1785989;80;20964;-85
2022/09/12 11:02:20;;;;;;;2.02;1.72;;;;;;;14.88;77.34;96581.48;1775759;80;21009;-85
2022/09/12 11:05:16;;;;;;;4.05;2.12;;;;;;;14.91;77.96;96581.06;1761897;81;21029;-85
2022/09/12 11:07:53;;;;;;;2.90;2.08;;;;;;;15.09;78.71;96581.73;1768991;81;21427;-85
2022/09/12 11:10:50;;;;;;;2.47;1.60;;;;;;;15.25;76.98;96566.89;1768002;80;20981;-86
2022/09/12 11:13:28;;;;;;;3.60;2.05;;;;;;;15.44;76.41;96559.47;1797748;79;20951;-85
2022/09/12 11:16:11;;;;;;;3.95;2.85;;;;;;;15.67;74.90;96568.69;1756127;80;20930;-85
2022/09/12 11:19:02;;;;;;;3.10;1.70;;;;;;;15.55;74.04;96569.30;1716607;82;20988;-85
2022/09/12 11:21:39;;;;;;;2.52;1.40;;;;;;;15.64;72.21;96566.49;1733641;81;20994;-85
2022/09/12 11:24:19;;;;;;;3.52;2.08;;;;;;;15.75;73.37;96553.52;1747617;80;20937;-85
2022/09/12 11:27:36;;;;;;;3.65;1.62;;;;;;;15.93;72.62;96555.43;1742982;81;21024;-85
2022/09/12 11:30:12;;;;;;;2.47;1.70;;;;;;;16.07;73.66;96566.13;1705400;83;20988;-85
2022/09/12 11:33:04;;;;;;;3.40;1.50;;;;;;;16.17;69.04;96568.30;1757767;81;21292;-86
2022/09/12 11:35:31;;;;;;;;;;;;;;;16.18;70.02;96570.70;1755870;80;20944;-85
2022/09/12 11:38:15;;;;;;;3.40;1.77;;;;;;;16.25;69.42;96568.03;1723544;81;20140;-85
2022/09/12 11:40:56;;;;;;;2.98;1.82;;;;;;;16.32;70.55;96578.48;1745772;80;21064;-85
2022/09/12 11:43:47;;;;;;;3.50;1.77;;;;;;;16.38;69.25;96565.83;1734137;81;21486;-85
2022/09/12 11:46:22;;;;;;;1.85;1.40;;;;;;;16.50;70.03;96562.81;1727535;81;21367;-86
2022/09/12 11:49:05;;;;;;;1.95;1.57;;;;;;;16.68;68.71;96562.08;1709455;82;21044;-86